sensor_id;sensor_type;location;lat;lon;timestamp;temperature;humidity
3628;DHT22;1830;49.000;12.074;2023-06-05T00:01:47;17.80;72.10
3628;DHT22;1830;49.000;12.074;2023-06-05T00:04:14;17.80;72.30
3628;DHT22;1830;49.000;12.074;2023-06-05T00:06:41;17.80;71.70
3628;DHT22;1830;49.000;12.074;2023-06-05T00:09:08;17.80;71.90
3628;DHT22;1830;49.000;12.074;2023-06-05T00:11:36;17.80;72.40
3628;DHT22;1830;49.000;12.074;2023-06-05T00:14:03;17.70;72.70
3628;DHT22;1830;49.000;12.074;2023-06-05T00:16:30;17.70;73.00
3628;DHT22;1830;49.000;12.074;2023-06-05T00:18:57;17.70;72.60
3628;DHT22;1830;49.000;12.074;2023-06-05T00:21:24;17.70;71.80
3628;DHT22;1830;49.000;12.074;2023-06-05T00:23:51;17.70;72.10
3628;DHT22;1830;49.000;12.074;2023-06-05T00:26:18;17.60;71.50
3628;DHT22;1830;49.000;12.074;2023-06-05T00:28:46;17.70;72.20
3628;DHT22;1830;49.000;12.074;2023-06-05T00:31:13;17.70;71.00
3628;DHT22;1830;49.000;12.074;2023-06-05T00:33:40;17.60;71.90
3628;DHT22;1830;49.000;12.074;2023-06-05T00:36:08;17.60;71.80
3628;DHT22;1830;49.000;12.074;2023-06-05T00:38:35;17.70;71.10
3628;DHT22;1830;49.000;12.074;2023-06-05T00:41:02;17.60;70.30
3628;DHT22;1830;49.000;12.074;2023-06-05T00:43:29;17.60;70.30
3628;DHT22;1830;49.000;12.074;2023-06-05T00:46:00;17.60;70.20
3628;DHT22;1830;49.000;12.074;2023-06-05T00:48:29;17.60;70.60
3628;DHT22;1830;49.000;12.074;2023-06-05T00:50:58;17.50;70.30
3628;DHT22;1830;49.000;12.074;2023-06-05T00:53:26;17.50;70.90
3628;DHT22;1830;49.000;12.074;2023-06-05T00:55:53;17.50;71.50
3628;DHT22;1830;49.000;12.074;2023-06-05T00:58:21;17.50;71.30
3628;DHT22;1830;49.000;12.074;2023-06-05T01:00:48;17.50;70.40
3628;DHT22;1830;49.000;12.074;2023-06-05T01:03:18;17.40;69.90
3628;DHT22;1830;49.000;12.074;2023-06-05T01:05:45;17.40;69.50
3628;DHT22;1830;49.000;12.074;2023-06-05T01:08:13;17.40;70.00
3628;DHT22;1830;49.000;12.074;2023-06-05T01:10:42;17.40;69.80
3628;DHT22;1830;49.000;12.074;2023-06-05T01:13:13;17.40;70.30
3628;DHT22;1830;49.000;12.074;2023-06-05T01:15:41;17.30;69.90
3628;DHT22;1830;49.000;12.074;2023-06-05T01:18:09;17.30;69.80
3628;DHT22;1830;49.000;12.074;2023-06-05T01:20:39;17.30;70.20
3628;DHT22;1830;49.000;12.074;2023-06-05T01:23:09;17.30;70.40
3628;DHT22;1830;49.000;12.074;2023-06-05T01:25:36;17.30;69.80
3628;DHT22;1830;49.000;12.074;2023-06-05T01:28:08;17.30;69.50
3628;DHT22;1830;49.000;12.074;2023-06-05T01:30:42;17.30;69.70
3628;DHT22;1830;49.000;12.074;2023-06-05T01:33:15;17.20;69.70
3628;DHT22;1830;49.000;12.074;2023-06-05T01:35:45;17.20;70.10
3628;DHT22;1830;49.000;12.074;2023-06-05T01:38:19;17.20;69.80
3628;DHT22;1830;49.000;12.074;2023-06-05T01:40:47;17.20;69.80
3628;DHT22;1830;49.000;12.074;2023-06-05T01:43:15;17.20;69.60
3628;DHT22;1830;49.000;12.074;2023-06-05T01:45:42;17.20;69.90
3628;DHT22;1830;49.000;12.074;2023-06-05T01:48:10;17.20;70.40
3628;DHT22;1830;49.000;12.074;2023-06-05T01:50:37;17.20;70.00
3628;DHT22;1830;49.000;12.074;2023-06-05T01:53:04;17.10;70.00
3628;DHT22;1830;49.000;12.074;2023-06-05T01:55:32;17.20;70.70
3628;DHT22;1830;49.000;12.074;2023-06-05T01:58:04;17.10;71.20
3628;DHT22;1830;49.000;12.074;2023-06-05T02:00:31;17.20;71.60
3628;DHT22;1830;49.000;12.074;2023-06-05T02:02:57;17.20;70.90
3628;DHT22;1830;49.000;12.074;2023-06-05T02:05:24;17.10;71.00
3628;DHT22;1830;49.000;12.074;2023-06-05T02:07:54;17.10;71.90
3628;DHT22;1830;49.000;12.074;2023-06-05T02:10:24;17.00;72.70
3628;DHT22;1830;49.000;12.074;2023-06-05T02:12:52;16.90;73.30
3628;DHT22;1830;49.000;12.074;2023-06-05T02:15:19;16.80;74.00
3628;DHT22;1830;49.000;12.074;2023-06-05T02:17:47;16.80;74.80
3628;DHT22;1830;49.000;12.074;2023-06-05T02:20:19;16.80;75.20
3628;DHT22;1830;49.000;12.074;2023-06-05T02:22:46;16.70;74.70
3628;DHT22;1830;49.000;12.074;2023-06-05T02:25:15;16.70;75.10
3628;DHT22;1830;49.000;12.074;2023-06-05T02:27:42;16.60;75.40
3628;DHT22;1830;49.000;12.074;2023-06-05T02:30:12;16.60;75.90
3628;DHT22;1830;49.000;12.074;2023-06-05T02:32:39;16.50;76.10
3628;DHT22;1830;49.000;12.074;2023-06-05T02:35:10;16.50;76.30
3628;DHT22;1830;49.000;12.074;2023-06-05T02:37:37;16.50;76.60
3628;DHT22;1830;49.000;12.074;2023-06-05T02:40:09;16.40;77.50
3628;DHT22;1830;49.000;12.074;2023-06-05T02:42:36;16.40;77.60
3628;DHT22;1830;49.000;12.074;2023-06-05T02:45:04;16.40;77.90
3628;DHT22;1830;49.000;12.074;2023-06-05T02:47:33;16.30;77.70
3628;DHT22;1830;49.000;12.074;2023-06-05T02:50:00;16.20;77.40
3628;DHT22;1830;49.000;12.074;2023-06-05T02:52:26;16.20;76.60
3628;DHT22;1830;49.000;12.074;2023-06-05T02:54:53;16.20;76.20
3628;DHT22;1830;49.000;12.074;2023-06-05T02:57:21;16.20;76.70
3628;DHT22;1830;49.000;12.074;2023-06-05T02:59:48;16.20;76.90
3628;DHT22;1830;49.000;12.074;2023-06-05T03:02:16;16.30;76.80
3628;DHT22;1830;49.000;12.074;2023-06-05T03:04:44;16.20;76.10
3628;DHT22;1830;49.000;12.074;2023-06-05T03:07:14;16.20;75.90
3628;DHT22;1830;49.000;12.074;2023-06-05T03:09:42;16.20;76.10
3628;DHT22;1830;49.000;12.074;2023-06-05T03:12:09;16.20;75.80
3628;DHT22;1830;49.000;12.074;2023-06-05T03:14:35;16.20;75.30
3628;DHT22;1830;49.000;12.074;2023-06-05T03:17:03;16.10;75.40
3628;DHT22;1830;49.000;12.074;2023-06-05T03:19:30;16.10;75.30
3628;DHT22;1830;49.000;12.074;2023-06-05T03:21:58;16.10;75.10
3628;DHT22;1830;49.000;12.074;2023-06-05T03:24:25;16.10;74.60
3628;DHT22;1830;49.000;12.074;2023-06-05T03:26:53;16.10;74.90
3628;DHT22;1830;49.000;12.074;2023-06-05T03:29:20;16.10;74.80
3628;DHT22;1830;49.000;12.074;2023-06-05T03:31:47;16.10;75.10
3628;DHT22;1830;49.000;12.074;2023-06-05T03:34:13;16.10;74.90
3628;DHT22;1830;49.000;12.074;2023-06-05T03:36:40;16.10;75.10
3628;DHT22;1830;49.000;12.074;2023-06-05T03:39:08;16.00;75.10
3628;DHT22;1830;49.000;12.074;2023-06-05T03:41:35;16.00;74.90
3628;DHT22;1830;49.000;12.074;2023-06-05T03:44:02;16.00;74.50
3628;DHT22;1830;49.000;12.074;2023-06-05T03:46:29;16.00;74.50
3628;DHT22;1830;49.000;12.074;2023-06-05T03:48:56;16.00;74.10
3628;DHT22;1830;49.000;12.074;2023-06-05T03:51:24;16.00;74.40
3628;DHT22;1830;49.000;12.074;2023-06-05T03:53:55;16.00;74.90
3628;DHT22;1830;49.000;12.074;2023-06-05T03:56:25;15.90;74.80
3628;DHT22;1830;49.000;12.074;2023-06-05T03:58:54;16.00;75.50
3628;DHT22;1830;49.000;12.074;2023-06-05T04:01:21;16.00;75.80
3628;DHT22;1830;49.000;12.074;2023-06-05T04:03:48;16.00;77.70
3628;DHT22;1830;49.000;12.074;2023-06-05T04:06:15;16.00;77.00
3628;DHT22;1830;49.000;12.074;2023-06-05T04:08:41;16.00;77.30
3628;DHT22;1830;49.000;12.074;2023-06-05T04:11:08;16.00;77.70
3628;DHT22;1830;49.000;12.074;2023-06-05T04:13:36;16.00;78.00
3628;DHT22;1830;49.000;12.074;2023-06-05T04:16:03;16.00;78.30
3628;DHT22;1830;49.000;12.074;2023-06-05T04:18:30;16.00;78.40
3628;DHT22;1830;49.000;12.074;2023-06-05T04:20:57;16.00;78.50
3628;DHT22;1830;49.000;12.074;2023-06-05T04:23:24;15.90;78.40
3628;DHT22;1830;49.000;12.074;2023-06-05T04:25:50;15.90;78.10
3628;DHT22;1830;49.000;12.074;2023-06-05T04:28:19;15.80;78.20
3628;DHT22;1830;49.000;12.074;2023-06-05T04:30:48;15.80;78.60
3628;DHT22;1830;49.000;12.074;2023-06-05T04:33:15;15.80;78.40
3628;DHT22;1830;49.000;12.074;2023-06-05T04:35:42;15.70;78.10
3628;DHT22;1830;49.000;12.074;2023-06-05T04:38:09;15.70;78.60
3628;DHT22;1830;49.000;12.074;2023-06-05T04:40:36;15.60;78.40
3628;DHT22;1830;49.000;12.074;2023-06-05T04:43:03;15.50;78.10
3628;DHT22;1830;49.000;12.074;2023-06-05T04:45:29;15.60;78.70
3628;DHT22;1830;49.000;12.074;2023-06-05T04:47:57;15.60;79.00
3628;DHT22;1830;49.000;12.074;2023-06-05T04:50:26;15.60;79.10
3628;DHT22;1830;49.000;12.074;2023-06-05T04:52:55;15.60;79.40
3628;DHT22;1830;49.000;12.074;2023-06-05T04:55:22;15.70;79.80
3628;DHT22;1830;49.000;12.074;2023-06-05T04:57:49;15.70;80.00
3628;DHT22;1830;49.000;12.074;2023-06-05T05:00:17;15.80;80.00
3628;DHT22;1830;49.000;12.074;2023-06-05T05:02:44;15.80;79.60
3628;DHT22;1830;49.000;12.074;2023-06-05T05:05:12;15.80;79.70
3628;DHT22;1830;49.000;12.074;2023-06-05T05:07:41;15.90;80.10
3628;DHT22;1830;49.000;12.074;2023-06-05T05:10:09;15.90;80.10
3628;DHT22;1830;49.000;12.074;2023-06-05T05:12:36;15.90;80.30
3628;DHT22;1830;49.000;12.074;2023-06-05T05:15:03;16.00;80.80
3628;DHT22;1830;49.000;12.074;2023-06-05T05:17:30;15.90;81.50
3628;DHT22;1830;49.000;12.074;2023-06-05T05:19:57;16.00;81.50
3628;DHT22;1830;49.000;12.074;2023-06-05T05:22:25;16.00;80.90
3628;DHT22;1830;49.000;12.074;2023-06-05T05:24:52;16.10;80.80
3628;DHT22;1830;49.000;12.074;2023-06-05T05:27:19;16.10;81.10
3628;DHT22;1830;49.000;12.074;2023-06-05T05:29:46;16.10;81.10
3628;DHT22;1830;49.000;12.074;2023-06-05T05:32:13;16.10;81.40
3628;DHT22;1830;49.000;12.074;2023-06-05T05:34:40;16.20;82.90
3628;DHT22;1830;49.000;12.074;2023-06-05T05:37:06;16.20;82.60
3628;DHT22;1830;49.000;12.074;2023-06-05T05:39:35;16.30;82.70
3628;DHT22;1830;49.000;12.074;2023-06-05T05:42:02;16.30;82.70
3628;DHT22;1830;49.000;12.074;2023-06-05T05:44:28;16.40;82.70
3628;DHT22;1830;49.000;12.074;2023-06-05T05:46:55;16.40;82.80
3628;DHT22;1830;49.000;12.074;2023-06-05T05:49:22;16.50;83.10
3628;DHT22;1830;49.000;12.074;2023-06-05T05:51:49;16.50;83.60
3628;DHT22;1830;49.000;12.074;2023-06-05T05:54:16;16.50;83.90
3628;DHT22;1830;49.000;12.074;2023-06-05T05:56:45;16.50;84.40
3628;DHT22;1830;49.000;12.074;2023-06-05T05:59:12;16.50;84.80
3628;DHT22;1830;49.000;12.074;2023-06-05T06:01:39;16.50;84.90
3628;DHT22;1830;49.000;12.074;2023-06-05T06:04:06;16.50;85.20
3628;DHT22;1830;49.000;12.074;2023-06-05T06:06:33;16.50;85.50
3628;DHT22;1830;49.000;12.074;2023-06-05T06:09:00;16.60;86.60
3628;DHT22;1830;49.000;12.074;2023-06-05T06:11:27;16.60;86.10
3628;DHT22;1830;49.000;12.074;2023-06-05T06:13:55;16.70;86.40
3628;DHT22;1830;49.000;12.074;2023-06-05T06:16:22;16.80;86.50
3628;DHT22;1830;49.000;12.074;2023-06-05T06:18:49;16.80;87.00
3628;DHT22;1830;49.000;12.074;2023-06-05T06:21:16;16.90;88.30
3628;DHT22;1830;49.000;12.074;2023-06-05T06:23:43;16.90;88.00
3628;DHT22;1830;49.000;12.074;2023-06-05T06:26:10;17.00;88.10
3628;DHT22;1830;49.000;12.074;2023-06-05T06:28:40;17.10;88.70
3628;DHT22;1830;49.000;12.074;2023-06-05T06:31:08;17.10;88.80
3628;DHT22;1830;49.000;12.074;2023-06-05T06:33:35;17.10;89.80
3628;DHT22;1830;49.000;12.074;2023-06-05T06:36:03;17.20;89.90
3628;DHT22;1830;49.000;12.074;2023-06-05T06:38:30;17.20;90.20
3628;DHT22;1830;49.000;12.074;2023-06-05T06:40:58;17.30;90.70
3628;DHT22;1830;49.000;12.074;2023-06-05T06:43:25;17.30;90.70
3628;DHT22;1830;49.000;12.074;2023-06-05T06:45:52;17.40;90.90
3628;DHT22;1830;49.000;12.074;2023-06-05T06:48:21;17.50;91.40
3628;DHT22;1830;49.000;12.074;2023-06-05T06:50:48;17.60;91.90
3628;DHT22;1830;49.000;12.074;2023-06-05T06:53:14;17.60;91.90
3628;DHT22;1830;49.000;12.074;2023-06-05T06:55:41;17.70;92.30
3628;DHT22;1830;49.000;12.074;2023-06-05T06:58:08;17.60;92.50
3628;DHT22;1830;49.000;12.074;2023-06-05T07:00:35;17.70;92.90
3628;DHT22;1830;49.000;12.074;2023-06-05T07:03:02;17.70;93.00
3628;DHT22;1830;49.000;12.074;2023-06-05T07:05:30;17.70;93.10
3628;DHT22;1830;49.000;12.074;2023-06-05T07:07:57;17.80;93.20
3628;DHT22;1830;49.000;12.074;2023-06-05T07:10:26;17.80;93.00
3628;DHT22;1830;49.000;12.074;2023-06-05T07:12:53;17.90;93.60
3628;DHT22;1830;49.000;12.074;2023-06-05T07:15:20;17.90;93.50
3628;DHT22;1830;49.000;12.074;2023-06-05T07:17:47;17.90;93.40
3628;DHT22;1830;49.000;12.074;2023-06-05T07:20:14;18.00;93.50
3628;DHT22;1830;49.000;12.074;2023-06-05T07:22:43;18.10;93.90
3628;DHT22;1830;49.000;12.074;2023-06-05T07:25:11;18.10;94.10
3628;DHT22;1830;49.000;12.074;2023-06-05T07:27:39;18.20;94.30
3628;DHT22;1830;49.000;12.074;2023-06-05T07:30:07;18.30;94.10
3628;DHT22;1830;49.000;12.074;2023-06-05T07:32:34;18.30;94.00
3628;DHT22;1830;49.000;12.074;2023-06-05T07:35:01;18.50;94.00
3628;DHT22;1830;49.000;12.074;2023-06-05T07:37:28;18.60;94.00
3628;DHT22;1830;49.000;12.074;2023-06-05T07:39:56;18.60;93.80
3628;DHT22;1830;49.000;12.074;2023-06-05T07:42:23;18.70;93.90
3628;DHT22;1830;49.000;12.074;2023-06-05T07:44:50;18.70;94.00
3628;DHT22;1830;49.000;12.074;2023-06-05T07:47:17;18.70;93.60
3628;DHT22;1830;49.000;12.074;2023-06-05T07:49:44;18.80;93.30
3628;DHT22;1830;49.000;12.074;2023-06-05T07:52:10;18.90;93.40
3628;DHT22;1830;49.000;12.074;2023-06-05T07:54:37;18.80;93.70
3628;DHT22;1830;49.000;12.074;2023-06-05T07:57:05;18.90;93.80
3628;DHT22;1830;49.000;12.074;2023-06-05T07:59:33;19.00;93.60
3628;DHT22;1830;49.000;12.074;2023-06-05T08:02:00;19.00;93.30
3628;DHT22;1830;49.000;12.074;2023-06-05T08:04:27;19.20;93.80
3628;DHT22;1830;49.000;12.074;2023-06-05T08:06:54;19.10;93.50
3628;DHT22;1830;49.000;12.074;2023-06-05T08:09:21;19.20;93.50
3628;DHT22;1830;49.000;12.074;2023-06-05T08:11:47;19.20;92.80
3628;DHT22;1830;49.000;12.074;2023-06-05T08:14:16;19.20;93.00
3628;DHT22;1830;49.000;12.074;2023-06-05T08:16:43;19.30;93.30
3628;DHT22;1830;49.000;12.074;2023-06-05T08:19:10;19.30;93.20
3628;DHT22;1830;49.000;12.074;2023-06-05T08:21:37;19.40;93.70
3628;DHT22;1830;49.000;12.074;2023-06-05T08:24:04;19.30;93.30
3628;DHT22;1830;49.000;12.074;2023-06-05T08:26:31;19.40;93.30
3628;DHT22;1830;49.000;12.074;2023-06-05T08:28:59;19.50;93.50
3628;DHT22;1830;49.000;12.074;2023-06-05T08:31:28;19.60;93.40
3628;DHT22;1830;49.000;12.074;2023-06-05T08:33:55;19.60;93.10
3628;DHT22;1830;49.000;12.074;2023-06-05T08:36:22;19.60;93.40
3628;DHT22;1830;49.000;12.074;2023-06-05T08:38:49;19.70;93.40
3628;DHT22;1830;49.000;12.074;2023-06-05T08:41:16;19.70;93.40
3628;DHT22;1830;49.000;12.074;2023-06-05T08:43:44;19.70;93.50
3628;DHT22;1830;49.000;12.074;2023-06-05T08:46:12;19.70;93.10
3628;DHT22;1830;49.000;12.074;2023-06-05T08:48:44;19.60;92.60
3628;DHT22;1830;49.000;12.074;2023-06-05T08:51:12;19.60;92.60
3628;DHT22;1830;49.000;12.074;2023-06-05T08:53:41;19.60;92.90
3628;DHT22;1830;49.000;12.074;2023-06-05T08:56:08;19.70;92.80
3628;DHT22;1830;49.000;12.074;2023-06-05T08:58:35;19.70;92.50
3628;DHT22;1830;49.000;12.074;2023-06-05T09:01:02;19.80;92.80
3628;DHT22;1830;49.000;12.074;2023-06-05T09:03:29;20.00;93.00
3628;DHT22;1830;49.000;12.074;2023-06-05T09:05:57;20.20;93.10
3628;DHT22;1830;49.000;12.074;2023-06-05T09:08:34;20.30;92.70
3628;DHT22;1830;49.000;12.074;2023-06-05T09:11:21;20.30;92.50
3628;DHT22;1830;49.000;12.074;2023-06-05T09:13:48;20.40;92.50
3628;DHT22;1830;49.000;12.074;2023-06-05T09:16:15;20.50;92.60
3628;DHT22;1830;49.000;12.074;2023-06-05T09:18:52;20.60;92.50
3628;DHT22;1830;49.000;12.074;2023-06-05T09:21:21;20.60;92.50
3628;DHT22;1830;49.000;12.074;2023-06-05T09:24:13;20.70;93.00
3628;DHT22;1830;49.000;12.074;2023-06-05T09:26:52;20.90;92.90
3628;DHT22;1830;49.000;12.074;2023-06-05T09:29:24;21.00;92.80
3628;DHT22;1830;49.000;12.074;2023-06-05T09:31:52;21.20;92.70
3628;DHT22;1830;49.000;12.074;2023-06-05T09:34:23;21.10;92.20
3628;DHT22;1830;49.000;12.074;2023-06-05T09:36:51;21.20;92.20
3628;DHT22;1830;49.000;12.074;2023-06-05T09:39:21;21.40;92.10
3628;DHT22;1830;49.000;12.074;2023-06-05T09:41:50;21.40;91.60
3628;DHT22;1830;49.000;12.074;2023-06-05T09:44:18;21.40;91.10
3628;DHT22;1830;49.000;12.074;2023-06-05T09:46:56;21.50;91.50
3628;DHT22;1830;49.000;12.074;2023-06-05T09:49:25;21.60;91.40
3628;DHT22;1830;49.000;12.074;2023-06-05T09:51:55;21.70;91.40
3628;DHT22;1830;49.000;12.074;2023-06-05T09:54:22;21.80;91.30
3628;DHT22;1830;49.000;12.074;2023-06-05T09:56:56;22.00;91.40
3628;DHT22;1830;49.000;12.074;2023-06-05T09:59:27;22.20;91.50
3628;DHT22;1830;49.000;12.074;2023-06-05T10:01:55;22.30;90.80
3628;DHT22;1830;49.000;12.074;2023-06-05T10:04:23;22.30;90.60
3628;DHT22;1830;49.000;12.074;2023-06-05T10:06:57;22.30;90.30
3628;DHT22;1830;49.000;12.074;2023-06-05T10:09:26;22.40;90.40
3628;DHT22;1830;49.000;12.074;2023-06-05T10:11:53;22.40;90.20
3628;DHT22;1830;49.000;12.074;2023-06-05T10:14:21;22.30;89.70
3628;DHT22;1830;49.000;12.074;2023-06-05T10:16:49;22.20;90.60
3628;DHT22;1830;49.000;12.074;2023-06-05T10:19:17;22.10;90.60
3628;DHT22;1830;49.000;12.074;2023-06-05T10:21:46;22.10;90.80
3628;DHT22;1830;49.000;12.074;2023-06-05T10:24:17;22.00;90.80
3628;DHT22;1830;49.000;12.074;2023-06-05T10:30:33;21.80;90.70
3628;DHT22;1830;49.000;12.074;2023-06-05T10:33:17;21.70;91.00
3628;DHT22;1830;49.000;12.074;2023-06-05T10:35:50;21.60;91.10
3628;DHT22;1830;49.000;12.074;2023-06-05T10:38:21;21.60;91.10
3628;DHT22;1830;49.000;12.074;2023-06-05T10:40:53;21.50;91.30
3628;DHT22;1830;49.000;12.074;2023-06-05T10:43:27;21.50;91.50
3628;DHT22;1830;49.000;12.074;2023-06-05T10:45:55;21.40;91.50
3628;DHT22;1830;49.000;12.074;2023-06-05T10:49:07;21.50;92.00
3628;DHT22;1830;49.000;12.074;2023-06-05T10:51:35;21.70;92.10
3628;DHT22;1830;49.000;12.074;2023-06-05T10:54:05;21.70;91.70
3628;DHT22;1830;49.000;12.074;2023-06-05T10:57:02;21.70;92.10
3628;DHT22;1830;49.000;12.074;2023-06-05T10:59:31;21.60;91.60
3628;DHT22;1830;49.000;12.074;2023-06-05T11:02:25;21.60;91.70
3628;DHT22;1830;49.000;12.074;2023-06-05T11:05:08;21.50;92.20
3628;DHT22;1830;49.000;12.074;2023-06-05T11:07:39;21.70;91.50
3628;DHT22;1830;49.000;12.074;2023-06-05T11:10:08;21.80;91.50
3628;DHT22;1830;49.000;12.074;2023-06-05T11:12:58;21.80;91.10
3628;DHT22;1830;49.000;12.074;2023-06-05T11:15:35;21.80;91.30
3628;DHT22;1830;49.000;12.074;2023-06-05T11:18:28;21.80;91.30
3628;DHT22;1830;49.000;12.074;2023-06-05T11:20:56;21.80;91.00
3628;DHT22;1830;49.000;12.074;2023-06-05T11:23:23;21.80;91.10
3628;DHT22;1830;49.000;12.074;2023-06-05T11:25:53;22.10;91.20
3628;DHT22;1830;49.000;12.074;2023-06-05T11:28:43;22.40;90.30
3628;DHT22;1830;49.000;12.074;2023-06-05T11:31:10;22.70;90.10
3628;DHT22;1830;49.000;12.074;2023-06-05T11:33:38;22.60;90.30
3628;DHT22;1830;49.000;12.074;2023-06-05T11:36:06;22.50;90.30
3628;DHT22;1830;49.000;12.074;2023-06-05T11:38:37;22.20;90.50
3628;DHT22;1830;49.000;12.074;2023-06-05T11:41:08;21.90;91.10
3628;DHT22;1830;49.000;12.074;2023-06-05T11:43:43;21.80;91.50
3628;DHT22;1830;49.000;12.074;2023-06-05T11:46:10;21.70;91.30
3628;DHT22;1830;49.000;12.074;2023-06-05T11:48:43;21.60;91.40
3628;DHT22;1830;49.000;12.074;2023-06-05T11:51:11;21.50;91.70
3628;DHT22;1830;49.000;12.074;2023-06-05T11:53:44;21.40;92.20
3628;DHT22;1830;49.000;12.074;2023-06-05T11:56:13;21.40;92.40
3628;DHT22;1830;49.000;12.074;2023-06-05T11:58:43;21.40;92.10
3628;DHT22;1830;49.000;12.074;2023-06-05T12:01:13;21.40;92.50
3628;DHT22;1830;49.000;12.074;2023-06-05T12:03:43;21.40;92.80
3628;DHT22;1830;49.000;12.074;2023-06-05T12:06:11;21.30;93.10
3628;DHT22;1830;49.000;12.074;2023-06-05T12:08:39;21.30;93.60
3628;DHT22;1830;49.000;12.074;2023-06-05T12:11:20;21.30;95.20
3628;DHT22;1830;49.000;12.074;2023-06-05T12:13:50;21.20;97.50
3628;DHT22;1830;49.000;12.074;2023-06-05T12:16:19;21.00;98.20
3628;DHT22;1830;49.000;12.074;2023-06-05T12:18:46;21.00;98.40
3628;DHT22;1830;49.000;12.074;2023-06-05T12:21:21;21.10;98.80
3628;DHT22;1830;49.000;12.074;2023-06-05T12:23:48;21.10;97.90
3628;DHT22;1830;49.000;12.074;2023-06-05T12:26:16;21.10;98.30
3628;DHT22;1830;49.000;12.074;2023-06-05T12:28:44;21.00;98.10
3628;DHT22;1830;49.000;12.074;2023-06-05T12:31:34;21.00;98.00
3628;DHT22;1830;49.000;12.074;2023-06-05T12:34:02;21.00;97.90
3628;DHT22;1830;49.000;12.074;2023-06-05T12:36:31;20.90;98.00
3628;DHT22;1830;49.000;12.074;2023-06-05T12:39:05;20.90;98.50
3628;DHT22;1830;49.000;12.074;2023-06-05T12:41:32;20.90;99.10
3628;DHT22;1830;49.000;12.074;2023-06-05T12:43:59;20.90;99.20
3628;DHT22;1830;49.000;12.074;2023-06-05T12:46:26;20.90;99.20
3628;DHT22;1830;49.000;12.074;2023-06-05T12:48:54;20.90;99.80
3628;DHT22;1830;49.000;12.074;2023-06-05T12:51:23;21.00;99.90
3628;DHT22;1830;49.000;12.074;2023-06-05T12:53:49;21.10;99.90
3628;DHT22;1830;49.000;12.074;2023-06-05T12:56:16;21.20;99.90
3628;DHT22;1830;49.000;12.074;2023-06-05T12:58:43;21.20;99.90
3628;DHT22;1830;49.000;12.074;2023-06-05T13:01:10;21.30;99.90
3628;DHT22;1830;49.000;12.074;2023-06-05T13:03:37;21.40;99.90
3628;DHT22;1830;49.000;12.074;2023-06-05T13:06:05;21.80;99.90
3628;DHT22;1830;49.000;12.074;2023-06-05T13:08:32;21.80;99.10
3628;DHT22;1830;49.000;12.074;2023-06-05T13:11:00;21.90;98.90
3628;DHT22;1830;49.000;12.074;2023-06-05T13:13:26;21.90;98.40
3628;DHT22;1830;49.000;12.074;2023-06-05T13:15:54;22.10;97.10
3628;DHT22;1830;49.000;12.074;2023-06-05T13:18:21;22.20;97.40
3628;DHT22;1830;49.000;12.074;2023-06-05T13:20:47;22.00;98.60
3628;DHT22;1830;49.000;12.074;2023-06-05T13:23:16;21.80;97.60
3628;DHT22;1830;49.000;12.074;2023-06-05T13:25:42;21.80;98.90
3628;DHT22;1830;49.000;12.074;2023-06-05T13:28:09;22.00;98.10
3628;DHT22;1830;49.000;12.074;2023-06-05T13:30:36;21.90;98.20
3628;DHT22;1830;49.000;12.074;2023-06-05T13:33:02;21.90;97.50
3628;DHT22;1830;49.000;12.074;2023-06-05T13:35:29;21.80;96.70
3628;DHT22;1830;49.000;12.074;2023-06-05T13:37:56;22.00;96.70
3628;DHT22;1830;49.000;12.074;2023-06-05T13:40:24;22.30;96.20
3628;DHT22;1830;49.000;12.074;2023-06-05T13:42:52;22.80;95.30
3628;DHT22;1830;49.000;12.074;2023-06-05T13:45:19;22.70;94.70
3628;DHT22;1830;49.000;12.074;2023-06-05T13:47:45;22.40;94.90
3628;DHT22;1830;49.000;12.074;2023-06-05T13:50:12;22.20;94.90
3628;DHT22;1830;49.000;12.074;2023-06-05T13:52:39;22.00;94.90
3628;DHT22;1830;49.000;12.074;2023-06-05T13:55:06;21.80;94.70
3628;DHT22;1830;49.000;12.074;2023-06-05T13:57:35;21.70;95.10
3628;DHT22;1830;49.000;12.074;2023-06-05T14:00:01;21.60;94.70
3628;DHT22;1830;49.000;12.074;2023-06-05T14:02:29;21.60;93.90
3628;DHT22;1830;49.000;12.074;2023-06-05T14:04:56;21.80;93.80
3628;DHT22;1830;49.000;12.074;2023-06-05T14:07:23;21.80;93.50
3628;DHT22;1830;49.000;12.074;2023-06-05T14:09:51;21.80;93.40
3628;DHT22;1830;49.000;12.074;2023-06-05T14:12:18;21.80;93.70
3628;DHT22;1830;49.000;12.074;2023-06-05T14:14:46;21.80;93.50
3628;DHT22;1830;49.000;12.074;2023-06-05T14:17:13;21.60;93.20
3628;DHT22;1830;49.000;12.074;2023-06-05T14:19:40;21.40;92.70
3628;DHT22;1830;49.000;12.074;2023-06-05T14:22:07;21.70;92.30
3628;DHT22;1830;49.000;12.074;2023-06-05T14:24:33;22.10;92.00
3628;DHT22;1830;49.000;12.074;2023-06-05T14:27:00;22.30;91.90
3628;DHT22;1830;49.000;12.074;2023-06-05T14:29:27;22.40;91.80
3628;DHT22;1830;49.000;12.074;2023-06-05T14:31:55;22.60;92.00
3628;DHT22;1830;49.000;12.074;2023-06-05T14:34:22;22.70;91.70
3628;DHT22;1830;49.000;12.074;2023-06-05T14:36:48;22.80;91.70
3628;DHT22;1830;49.000;12.074;2023-06-05T14:39:17;22.90;91.60
3628;DHT22;1830;49.000;12.074;2023-06-05T14:41:45;22.90;91.20
3628;DHT22;1830;49.000;12.074;2023-06-05T14:44:12;23.00;91.50
3628;DHT22;1830;49.000;12.074;2023-06-05T14:46:38;22.70;91.90
3628;DHT22;1830;49.000;12.074;2023-06-05T14:49:06;22.90;91.60
3628;DHT22;1830;49.000;12.074;2023-06-05T14:51:33;23.00;91.60
3628;DHT22;1830;49.000;12.074;2023-06-05T14:54:00;23.00;90.90
3628;DHT22;1830;49.000;12.074;2023-06-05T14:56:27;23.00;90.50
3628;DHT22;1830;49.000;12.074;2023-06-05T14:58:54;23.00;90.60
3628;DHT22;1830;49.000;12.074;2023-06-05T15:01:20;23.00;90.70
3628;DHT22;1830;49.000;12.074;2023-06-05T15:03:47;23.10;90.20
3628;DHT22;1830;49.000;12.074;2023-06-05T15:06:15;23.10;89.00
3628;DHT22;1830;49.000;12.074;2023-06-05T15:08:42;23.20;89.90
3628;DHT22;1830;49.000;12.074;2023-06-05T15:11:08;23.10;90.10
3628;DHT22;1830;49.000;12.074;2023-06-05T15:13:36;23.00;90.30
3628;DHT22;1830;49.000;12.074;2023-06-05T15:16:02;22.90;89.60
3628;DHT22;1830;49.000;12.074;2023-06-05T15:18:29;22.70;90.00
3628;DHT22;1830;49.000;12.074;2023-06-05T15:20:56;22.60;90.60
3628;DHT22;1830;49.000;12.074;2023-06-05T15:23:24;22.40;89.50
3628;DHT22;1830;49.000;12.074;2023-06-05T15:25:51;22.10;88.70
3628;DHT22;1830;49.000;12.074;2023-06-05T15:28:18;22.00;88.80
3628;DHT22;1830;49.000;12.074;2023-06-05T15:30:45;22.00;88.50
3628;DHT22;1830;49.000;12.074;2023-06-05T15:33:14;21.90;88.70
3628;DHT22;1830;49.000;12.074;2023-06-05T15:35:41;21.70;89.30
3628;DHT22;1830;49.000;12.074;2023-06-05T15:38:09;21.50;89.20
3628;DHT22;1830;49.000;12.074;2023-06-05T15:40:37;21.40;89.90
3628;DHT22;1830;49.000;12.074;2023-06-05T15:43:05;21.40;90.30
3628;DHT22;1830;49.000;12.074;2023-06-05T15:45:33;21.40;90.40
3628;DHT22;1830;49.000;12.074;2023-06-05T15:48:00;21.50;91.10
3628;DHT22;1830;49.000;12.074;2023-06-05T15:50:27;21.70;91.70
3628;DHT22;1830;49.000;12.074;2023-06-05T15:52:54;21.80;92.10
3628;DHT22;1830;49.000;12.074;2023-06-05T15:55:21;21.80;92.30
3628;DHT22;1830;49.000;12.074;2023-06-05T15:57:49;21.80;92.50